Portada
METAR-TAF:

METAR-TAF

Aeropuertos :

El Monte Airport

El Monte, California, Estados Unidos

latitud: 34-05N, longitud: 118-02W, altitud: 90 m

Observación

El informe se hizo hace 7 horas y 54 minutos, a las 01:50 UTC
Viento 8 kt del sur-suroeste
Temperatura 18°C
Humedad 52%
Presión 1012 hPa
Visibilidad: 16.1 km
Escasas nubes a una altura de 6000 ft

METAR: KEMT 040150Z 21008KT 10SM FEW060 18/08 A2988

Hora: 02:44 (09:44 UTC)


TAF: falta

Observaciones y pronósticos meteorológicos de más de 4000 aeropuertos (mensajes METAR y TAF).

Los puntos amarillos y rojos representan las estaciones disponibles.

Ponga el ratón en el punto deseado para ver el nombre de la estación.

Haga clic para ver las observaciones y los pronósticos meteorológicos.

Para cambiar el mapa : haga clic en los botones verdes con una cruz de color negro para hacer un zoom, en el botón verde con un guión para alejar o en las flechas verdes para mapas adyacentes.


METAR-TAF: